Nearby METAR Reports

 

KSNA - John Wayne Airport, California, USA
Distance from station: NE 2mi, 3km
Updated: Tue, 22-Jun-2021 6:53am PDT
Mostly cloudy
Mostly cloudy
 Wind from varies
Wind: varies 3 mph , 6 km/h
Temperature: 66°F , 19°C
Dew Point: 57°F , 14°C
Humidity: 73%
Barometer: 29.93 inHg , 1013.5 hPa
Clouds: Mostly cloudy
Visibility: 9 miles , 14 km
Cloud details: Mostly cloudy 1300 ft
2021/06/22 13:53 KSNA 221353Z VRB03KT 9SM BKN013 19/14 A2993 RMK AO2 SLP133 T01890139
KSLI - Los Alamitos Aaf, California, USA
Distance from station: NW 11mi, 18km
Updated: Tue, 22-Jun-2021 6:56am PDT
Partly cloudy
Partly cloudy
 Wind from WNW
Wind: WNW 5 mph , 7 km/h
Temperature: 63°F , 17°C
Dew Point: 61°F , 16°C
Humidity: 94%
Barometer: 29.93 inHg , 1013.5 hPa
Clouds: Partly cloudy
Visibility: 7 miles , 11 km
Cloud details: Few Clouds 1000 ft
Partly cloudy 15000 ft
2021/06/22 13:56 KSLI 221356Z 29004KT 7SM FEW010 SCT150 17/16 A2993 RMK AO2A SLP138 T01650162
 
KFUL - Fullerton Muni, California, USA
Distance from station: NNW 16mi, 26km
Updated: Tue, 22-Jun-2021 6:53am PDT
Few Clouds
Few Clouds
 Wind from varies
Wind: varies 3 mph , 6 km/h
Temperature: 63°F , 17°C
Dew Point: 57°F , 14°C
Humidity: 83%
Barometer: 29.92 inHg , 1013.2 hPa
Clouds: Few Clouds
Visibility: 10 miles , 16 km
Cloud details: Few Clouds 15000 ft
Few Clouds 25000 ft
2021/06/22 13:53 KFUL 221353Z VRB03KT 10SM FEW150 FEW250 17/14 A2992 RMK AO2 SLP132 T01720139 $
KLGB - Long Beach Muni, California, USA
Distance from station: NW 19mi, 30km
Updated: Tue, 22-Jun-2021 6:53am PDT
Clear
Clear
 Wind from NW
Wind: NW 5 mph , 7 km/h
Temperature: 63°F , 17°C
Dew Point: 57°F , 14°C
Humidity: 83%
Barometer: 29.93 inHg , 1013.5 hPa
Clouds: Clear
Visibility: 10 miles , 16 km
2021/06/22 13:53 KLGB 221353Z 31004KT 10SM CLR 17/14 A2993 RMK AO2 SLP136 T01670139 $
 
KAJO - Corona Muni, California, USA
Distance from station: NE 24mi, 39km
Updated: Tue, 22-Jun-2021 6:56am PDT
Clear
Clear
 Wind from calm
Wind: Calm
Temperature: 59°F , 15°C
Dew Point: 57°F , 14°C
Humidity: 94%
Barometer: 29.94 inHg , 1013.9 hPa
Clouds: Clear
Visibility: 10 miles , 16 km
2021/06/22 13:56 KAJO 221356Z AUTO 00000KT 10SM CLR 15/14 A2994 RMK AO2 SLP132 T01500139
KTOA - Torrance Municip, California, USA
Distance from station: WNW 26mi, 42km
Updated: Tue, 22-Jun-2021 7:47am PDT
Partly cloudy
Partly cloudy
 Wind from W
Wind: W 12 mph , 19 km/h
Temperature: 68°F , 20°C
Dew Point: 64°F , 18°C
Humidity: 88%
Barometer: 29.94 inHg , 1013.9 hPa
Clouds: Partly cloudy
Visibility: 10 miles , 16 km
Cloud details: Few Clouds 600 ft
Partly cloudy 5000 ft
2021/06/22 14:47 KTOA 221447Z 26010KT 10SM FEW006 SCT050 20/18 A2994
 
KCNO - Chino, California, USA
Distance from station: NE 28mi, 45km
Updated: Tue, 22-Jun-2021 6:53am PDT
Mist, Partly cloudy
Mist, Partly cloudy
 Wind from S
Wind: S 3 mph , 6 km/h
Temperature: 63°F , 17°C
Dew Point: 57°F , 14°C
Humidity: 83%
Barometer: 29.94 inHg , 1013.9 hPa
Summary: Mist
Clouds: Partly cloudy
Visibility: 5 miles , 8 km
Cloud details: Partly cloudy 20000 ft
2021/06/22 13:53 KCNO 221353Z 19003KT 5SM BR SCT200 17/14 A2994 RMK AO2 SLP133 T01670144
KEMT - El Monte, California, USA
Distance from station: NNW 30mi, 48km
Updated: Mon, 21-Jun-2021 7:45pm PDT
NOT Current
Clear
Clear
 Wind from SSW
Wind: SSW 10 mph , 17 km/h
Temperature: 72°F , 22°C
Dew Point: 57°F , 14°C
Humidity: 61%
Barometer: 29.92 inHg , 1013.2 hPa
Clouds: Clear
Visibility: 10 miles , 16 km
2021/06/22 02:45 KEMT 220245Z 20009KT 10SM CLR 22/14 A2992
 
KHHR - Hawthorne, California, USA
Distance from station: NW 31mi, 50km
Updated: Tue, 22-Jun-2021 7:37am PDT
Mostly cloudy
Mostly cloudy
 Wind from S
Wind: S 3 mph , 6 km/h
Temperature: 63°F , 17°C
Dew Point: 57°F , 14°C
Humidity: 83%
Barometer: 29.94 inHg , 1013.9 hPa
Clouds: Mostly cloudy
Visibility: 10 miles , 16 km
Cloud details: Mostly cloudy 1200 ft
2021/06/22 14:37 KHHR 221437Z 18003KT 10SM BKN012 17/14 A2994 RMK AO2 T01720139
KPOC - La Verne/Bracket, California, USA
Distance from station: NNE 32mi, 52km
Updated: Tue, 22-Jun-2021 6:47am PDT
Clear
Clear
 Wind from calm
Wind: Calm
Temperature: 59°F , 15°C
Dew Point: 57°F , 14°C
Humidity: 94%
Barometer: 29.94 inHg , 1013.9 hPa
Clouds: Clear
Visibility: 10 miles , 16 km
2021/06/22 13:47 KPOC 221347Z 00000KT 10SM CLR 15/14 A2994
 
KONT - Ontario, California, USA
Distance from station: NNE 33mi, 53km
Updated: Tue, 22-Jun-2021 6:53am PDT
Haze, Few clouds
Haze, Few clouds
 Wind from SSE
Wind: SSE 3 mph , 6 km/h
Temperature: 64°F , 18°C
Dew Point: 57°F , 14°C
Humidity: 78%
Barometer: 29.93 inHg , 1013.5 hPa
Summary: Haze
Clouds: Few Clouds
Visibility: 6 miles , 10 km
Cloud details: Few Clouds 15000 ft
Few Clouds 25000 ft
2021/06/22 13:53 KONT 221353Z 15003KT 6SM HZ FEW150 FEW250 18/14 A2993 RMK AO2 SLP119 T01780139
KRAL - Riverside, California, USA
Distance from station: NE 33mi, 53km
Updated: Tue, 22-Jun-2021 6:53am PDT
Clear
Clear
 Wind from calm
Wind: Calm
Temperature: 63°F , 17°C
Dew Point: 57°F , 14°C
Humidity: 83%
Barometer: 29.93 inHg , 1013.5 hPa
Clouds: Clear
Visibility: 10 miles , 16 km
2021/06/22 13:53 KRAL 221353Z 00000KT 10SM CLR 17/14 A2993 RMK AO2 SLP120 T01670139
 
KCQT - USC/Los Angeles, California, USA
Distance from station: NW 34mi, 54km
Updated: Tue, 22-Jun-2021 7:35am PDT
Mostly cloudy
Mostly cloudy
 Wind from varies
Wind: varies 3 mph , 6 km/h
Temperature: 64°F , 18°C
Dew Point: 57°F , 14°C
Humidity: 78%
Barometer: 29.93 inHg , 1013.5 hPa
Clouds: Mostly cloudy
Visibility: 10 miles , 16 km
Cloud details: Mostly cloudy 1000 ft
2021/06/22 14:35 KCQT 221435Z AUTO VRB03KT 10SM BKN010 18/14 A2993 RMK AO2 T01830139
KLAX - LAX/Los Angeles, California, USA
Distance from station: NW 34mi, 55km
Updated: Tue, 22-Jun-2021 6:53am PDT
Mostly cloudy
Mostly cloudy
 Wind from calm
Wind: Calm
Temperature: 63°F , 17°C
Dew Point: 57°F , 14°C
Humidity: 83%
Barometer: 29.93 inHg , 1013.5 hPa
Clouds: Mostly cloudy
Visibility: 8 miles , 13 km
Cloud details: Mostly cloudy 1100 ft
Mostly cloudy 16000 ft
2021/06/22 13:53 KLAX 221353Z 00000KT 8SM BKN011 BKN160 17/14 A2993 RMK AO2 SLP134 BKN011 V SCT T01670139 $
 
KAVX - Avalon, California, USA
Distance from station: WSW 35mi, 56km
Updated: Tue, 22-Jun-2021 7:23am PDT
Fog, Overcast
Fog, Overcast
 Wind from WSW
Wind: WSW 8 mph , 13 km/h
Temperature: 55°F , 13°C
Dew Point: 55°F , 13°C
Humidity: 100%
Barometer: 29.96 inHg , 1014.6 hPa
Summary: Fog
Clouds: Overcast
Visibility: 1/4 mile , 0.4 km
Cloud details: Overcast 100 ft
2021/06/22 14:23 KAVX 221423Z AUTO 24007KT 1/4SM FG VV001 13/13 A2996 RMK AO2 T01280128 $